Airfield :
LOGIN :

Register | Disclaimer

   EN    FR    IT 

 










Legend :    VFR   Marginal VFR   IFR   Intensive IFR   Very Intensive IFR
Visi :
Ceiling :
>= 8 km
>= 3000ft
5 to 8 km
1000 to 3000 ft
1500m to 5 km
500 to 1000 ft
800 to 1500m
200 to 500 ft
< 800m
< 200 ft
Symbols :   Thunderstorms  Fog  Heavy snow  Heavy precipitations  Wind > 20 kt
SIGMETs :     Misc.  Thunderstorms  Icing  Turbulence  Mountain Waves  Volcanic Ashes







- Airport Elevation : 162 ft
- IATA code : BOD
- Download approach charts


LFBD - Bordeaux / Merignac

CURRENT METAR :
  • 200900Z AUTO 11003KT 040V130 6000 OVC013 07/06 Q1025 NOSIG

EXPIRED METARs :
  • 200830Z AUTO 15003KT 110V200 5000 BR OVC013 06/06 Q1025 NOSIG
  • 200800Z AUTO VRB02KT 4500 BR OVC012 05/05 Q1025 TEMPO VV/// BECMG 9999 NSW
  • 200730Z AUTO VRB02KT 4700 BR OVC011 05/04 Q1025 TEMPO VV/// BECMG 9999 NSW
  • 200700Z AUTO 11003KT 4900 BR OVC009 04/04 Q1025 TEMPO 0300 FG VV///
  • 200630Z AUTO VRB03KT 4700 BR OVC009 04/04 Q1025 TEMPO 0300 FG VV///

TAF AMD TAF LFBD
Valid from the 20 at 07:00 until the 21 at 12:00 UTC


200752Z 2007/2112 12004KT 5000 BR BKN011
PROB40
TEMPO 2007/2009 0500 BCFG
BECMG 2009/2011 9999 NSW
BECMG 2011/2013 CAVOK
BECMG 2019/2021 4000 BR
TEMPO 2100/2109 0300 FG VV///
BECMG 2109/2111 CAVOK TX13/2015Z TN03/2106Z
ATIS : +33 5 57 92 81 04
No reported NOTAMs for that airfield.



MET'MAP, your aeronautical weather chart ! - Copyright ORBIFLY December 2007 - Disclaimer

ORBIFLY MET'MAP TEAM :

Programming & Development : Alexandra Zaïnal
Concept & Development : Baudouin d'Aumeries
Co-Development & Prog : Marc-Olivier Méhu
Technical & hardware support : Manuel Goepfert

Contact : metmap@orbifly.com




SOURCES & CREDITS :

   NOAA